createdAt,value
2019-01-19T00:04:51.080Z,8.70
2019-01-19T00:10:28.712Z,9.40
2019-01-19T00:16:10.644Z,9.90
2019-01-19T00:21:57.216Z,8.93
2019-01-19T00:27:27.207Z,9.73
2019-01-19T00:33:03.184Z,9.07
2019-01-19T00:38:51.575Z,9.07
2019-01-19T00:44:15.583Z,8.13
2019-01-19T00:49:34.858Z,8.50
2019-01-19T00:54:55.944Z,9.07
2019-01-19T01:00:22.535Z,9.23
2019-01-19T01:05:43.671Z,8.60
2019-01-19T01:11:07.461Z,9.90
2019-01-19T01:16:46.764Z,9.60
2019-01-19T01:22:24.147Z,9.00
2019-01-19T01:27:47.722Z,8.63
2019-01-19T01:33:30.519Z,7.63
2019-01-19T01:38:57.428Z,5.87
2019-01-19T01:44:35.252Z,7.23
2019-01-19T01:50:13.953Z,7.33
2019-01-19T01:55:34.824Z,8.33
2019-01-19T02:01:11.022Z,7.83
2019-01-19T02:06:47.152Z,7.60
2019-01-19T02:12:28.947Z,7.80
2019-01-19T02:18:02.035Z,9.10
2019-01-19T02:23:23.216Z,7.37
2019-01-19T02:28:50.280Z,10.43
2019-01-19T02:34:34.369Z,15.70
2019-01-19T02:40:27.267Z,13.97
2019-01-19T02:46:08.900Z,13.10
2019-01-19T02:51:41.984Z,11.03
2019-01-19T02:57:18.363Z,11.03
2019-01-19T03:02:50.734Z,10.43
2019-01-19T03:08:11.848Z,11.73
2019-01-19T03:13:50.359Z,13.43
2019-01-19T03:19:20.208Z,10.77
2019-01-19T03:24:47.104Z,10.03
2019-01-19T03:30:08.345Z,12.07
2019-01-19T03:35:38.501Z,10.73
2019-01-19T03:41:14.648Z,10.63
2019-01-19T03:46:54.075Z,10.63
2019-01-19T03:52:31.599Z,11.97
2019-01-19T03:57:58.113Z,9.70
2019-01-19T04:03:37.291Z,10.13
2019-01-19T04:09:18.862Z,9.13
2019-01-19T04:15:04.083Z,8.27
2019-01-19T04:20:58.543Z,9.60
2019-01-19T04:26:18.299Z,9.10
2019-01-19T04:31:36.123Z,8.50
2019-01-19T04:36:54.121Z,9.53
2019-01-19T04:42:12.220Z,9.60
2019-01-19T04:47:30.179Z,7.97
2019-01-19T04:52:48.011Z,7.27
2019-01-19T04:58:05.835Z,7.87
2019-01-19T05:03:23.664Z,7.60
2019-01-19T05:08:41.493Z,7.27
2019-01-19T05:13:59.320Z,7.00
2019-01-19T05:19:17.143Z,7.87
2019-01-19T05:24:34.987Z,6.40
2019-01-19T05:29:52.874Z,7.10
2019-01-19T05:35:10.712Z,7.47
2019-01-19T05:40:28.533Z,6.10
2019-01-19T05:45:46.366Z,5.77
2019-01-19T05:51:04.255Z,5.90
2019-01-19T05:56:22.083Z,5.67
2019-01-19T06:01:39.953Z,6.23
2019-01-19T06:06:57.769Z,6.27
2019-01-19T06:12:15.660Z,5.93
2019-01-19T06:17:33.483Z,5.57
2019-01-19T06:22:51.313Z,6.97
2019-01-19T06:28:09.140Z,5.37
2019-01-19T06:33:26.971Z,5.77
2019-01-19T06:38:44.797Z,5.93
2019-01-19T06:44:02.627Z,5.43
2019-01-19T06:49:20.461Z,5.67
2019-01-19T06:54:40.251Z,6.23
2019-01-19T06:59:58.083Z,6.10
2019-01-19T07:05:15.955Z,5.63
2019-01-19T07:10:35.570Z,5.40
2019-01-19T07:15:53.383Z,5.50
2019-01-19T07:21:11.184Z,4.57
2019-01-19T07:26:29.012Z,5.47
2019-01-19T07:31:46.860Z,4.73
2019-01-19T07:37:09.797Z,5.00
2019-01-19T07:42:24.244Z,5.83
2019-01-19T07:47:43.131Z,5.73
2019-01-19T07:53:00.958Z,5.30
2019-01-19T07:58:18.851Z,5.60
2019-01-19T08:03:36.676Z,7.47
2019-01-19T08:08:54.514Z,6.23
2019-01-19T08:14:12.336Z,5.00
2019-01-19T08:19:30.165Z,5.40
2019-01-19T08:24:47.992Z,5.87
2019-01-19T08:30:23.345Z,5.27
2019-01-19T08:35:42.147Z,5.13
2019-01-19T08:41:00.031Z,7.33
2019-01-19T08:46:18.211Z,5.87
2019-01-19T08:51:36.074Z,5.70
2019-01-19T08:56:54.179Z,5.90
2019-01-19T09:02:12.302Z,6.17
2019-01-19T09:07:33.853Z,5.30
2019-01-19T09:12:50.107Z,6.90
2019-01-19T09:18:08.259Z,6.17
2019-01-19T09:23:28.000Z,8.27
2019-01-19T09:28:47.094Z,6.47
2019-01-19T09:34:05.195Z,6.20
2019-01-19T09:39:23.394Z,5.60
2019-01-19T09:44:41.512Z,5.23
2019-01-19T09:49:59.618Z,5.10
2019-01-19T09:55:17.729Z,4.93
2019-01-19T10:00:37.847Z,4.30
2019-01-19T10:05:55.610Z,5.37
2019-01-19T10:11:14.095Z,5.00
2019-01-19T10:16:32.236Z,4.80
2019-01-19T10:21:50.399Z,4.73
2019-01-19T10:27:08.490Z,3.23
2019-01-19T10:32:26.591Z,2.73
2019-01-19T10:37:44.686Z,3.00
2019-01-19T10:43:04.155Z,3.73
2019-01-19T10:48:22.276Z,2.90
2019-01-19T10:53:40.416Z,2.87
2019-01-19T10:58:58.499Z,3.00
2019-01-19T11:04:16.586Z,2.60
2019-01-19T11:09:34.686Z,3.13
2019-01-19T11:14:52.805Z,3.63
2019-01-19T11:20:19.343Z,2.70
2019-01-19T11:25:37.465Z,3.03
2019-01-19T11:30:55.555Z,2.83
2019-01-19T11:36:13.664Z,3.13
2019-01-19T11:41:31.768Z,3.27
2019-01-19T11:46:49.866Z,3.27
2019-01-19T11:52:07.947Z,3.13
2019-01-19T11:57:26.051Z,3.30
2019-01-19T12:02:44.208Z,4.20
2019-01-19T12:08:02.332Z,3.60
2019-01-19T12:13:20.435Z,3.50
2019-01-19T12:18:38.547Z,3.50
2019-01-19T12:23:56.670Z,3.83
2019-01-19T12:29:14.480Z,3.90
2019-01-19T12:34:32.311Z,3.67
2019-01-19T12:39:50.136Z,4.27
2019-01-19T12:45:14.228Z,3.70
2019-01-19T12:50:32.040Z,3.80
2019-01-19T12:55:49.931Z,3.73
2019-01-19T13:01:07.815Z,3.17
2019-01-19T13:06:31.626Z,4.03
2019-01-19T13:12:07.839Z,3.27
2019-01-19T13:17:37.811Z,4.00
2019-01-19T13:23:16.908Z,3.80
2019-01-19T13:28:59.415Z,3.83
2019-01-19T13:34:37.031Z,3.03
2019-01-19T13:40:06.855Z,3.43
2019-01-19T13:45:45.371Z,4.03
2019-01-19T13:51:21.648Z,3.53
2019-01-19T13:56:48.517Z,3.20
2019-01-19T14:02:34.804Z,3.47
2019-01-19T14:08:17.328Z,3.20
2019-01-19T14:13:50.453Z,3.40
2019-01-19T14:19:37.507Z,2.90
2019-01-19T14:24:58.591Z,3.37
2019-01-19T14:30:28.895Z,3.20
2019-01-19T14:36:02.236Z,3.90
2019-01-19T14:41:38.217Z,4.10
2019-01-19T14:47:05.147Z,3.50
2019-01-19T14:52:41.111Z,3.93
2019-01-19T14:58:04.980Z,3.67
2019-01-19T15:03:35.263Z,4.00
2019-01-19T15:09:03.904Z,4.00
2019-01-19T15:14:57.003Z,4.43
2019-01-19T15:20:29.319Z,4.27
2019-01-19T15:26:09.343Z,5.27
2019-01-19T15:31:39.170Z,5.07
2019-01-19T15:37:24.672Z,4.37
2019-01-19T15:43:09.428Z,4.43
2019-01-19T15:48:40.663Z,3.50
2019-01-19T15:54:07.494Z,3.40
2019-01-19T15:59:45.348Z,3.00
2019-01-19T16:05:24.603Z,3.53
2019-01-19T16:11:03.943Z,3.00
2019-01-19T16:16:54.347Z,3.43
2019-01-19T16:22:21.151Z,3.73
2019-01-19T16:28:01.738Z,3.47
2019-01-19T16:33:34.528Z,3.30
2019-01-19T16:38:58.665Z,4.07
2019-01-19T16:44:42.183Z,4.33
2019-01-19T16:50:36.912Z,4.70
2019-01-19T16:56:14.517Z,4.33
2019-01-19T17:01:43.987Z,4.33
2019-01-19T17:07:07.750Z,4.40
2019-01-19T17:12:28.833Z,4.53
2019-01-19T17:17:49.909Z,4.27
2019-01-19T17:23:25.723Z,4.40
2019-01-19T17:28:49.679Z,4.13
2019-01-19T17:34:16.611Z,4.37
2019-01-19T17:39:46.782Z,4.33
2019-01-19T17:45:36.335Z,3.87
2019-01-19T17:51:26.216Z,5.00
2019-01-19T17:56:59.324Z,6.37
2019-01-19T18:02:29.627Z,6.00
2019-01-19T20:04:58.885Z,10.77
2019-01-19T20:10:19.181Z,11.07
2019-01-19T20:15:37.156Z,11.13
2019-01-19T20:20:55.185Z,10.97
2019-01-19T20:26:13.091Z,12.10
2019-01-19T20:31:30.984Z,14.07
2019-01-19T20:36:48.888Z,12.67
2019-01-19T20:42:06.790Z,14.50
2019-01-19T20:47:24.714Z,15.83
2019-01-19T20:52:42.769Z,14.27
2019-01-19T20:58:00.599Z,15.87
2019-01-19T21:03:18.749Z,15.60
2019-01-19T21:08:36.858Z,15.97
2019-01-19T21:13:57.169Z,16.93
2019-01-19T21:19:15.294Z,16.27
2019-01-19T21:24:33.132Z,17.70
2019-01-19T21:29:53.708Z,16.97
2019-01-19T21:35:11.831Z,18.13
2019-01-19T21:40:29.680Z,19.13
2019-01-19T21:45:47.517Z,20.23
2019-01-19T21:51:14.150Z,17.97
2019-01-19T21:56:28.643Z,19.90
2019-01-19T22:01:46.487Z,21.53
2019-01-19T22:07:04.342Z,21.07
2019-01-19T22:12:22.440Z,19.77
2019-01-19T22:17:41.344Z,22.97
2019-01-19T22:22:59.210Z,23.27
2019-01-19T22:28:17.060Z,21.20
2019-01-19T22:33:34.959Z,21.50
2019-01-19T22:38:53.376Z,20.50
2019-01-19T22:44:11.251Z,23.33
2019-01-19T22:49:29.090Z,21.43
2019-01-19T22:54:46.982Z,22.67
2019-01-19T23:00:08.075Z,21.07
2019-01-19T23:05:26.779Z,21.23
2019-01-19T23:10:46.451Z,20.70
2019-01-19T23:16:04.391Z,21.97
2019-01-19T23:21:22.223Z,21.87
2019-01-19T23:26:40.327Z,20.23
2019-01-19T23:31:58.161Z,22.33
2019-01-19T23:37:15.999Z,22.20
2019-01-19T23:42:33.872Z,22.20
2019-01-19T23:47:51.740Z,23.27
2019-01-19T23:53:09.577Z,22.60
2019-01-19T23:58:27.411Z,22.57
